createdAt,value
2019-02-26T00:01:20.617Z,1.20
2019-02-26T00:03:49.418Z,0.90
2019-02-26T00:06:20.661Z,1.00
2019-02-26T00:08:53.328Z,0.93
2019-02-26T00:11:26.357Z,1.10
2019-02-26T00:13:56.756Z,1.17
2019-02-26T00:16:27.638Z,0.87
2019-02-26T00:19:00.790Z,1.07
2019-02-26T00:21:31.083Z,0.97
2019-02-26T00:24:00.887Z,0.83
2019-02-26T00:26:30.838Z,1.07
2019-02-26T00:29:01.925Z,0.90
2019-02-26T00:31:32.328Z,0.90
2019-02-26T00:34:02.279Z,0.90
2019-02-26T00:36:33.741Z,0.80
2019-02-26T00:39:07.235Z,0.93
2019-02-26T00:41:37.291Z,0.90
2019-02-26T00:44:08.303Z,0.80
2019-02-26T00:46:39.621Z,0.83
2019-02-26T00:49:09.650Z,0.60
2019-02-26T00:51:44.336Z,1.23
2019-02-26T00:54:11.527Z,1.07
2019-02-26T00:56:42.064Z,0.90
2019-02-26T00:59:11.757Z,0.80
2019-02-26T01:01:44.123Z,1.10
2019-02-26T01:04:13.967Z,1.00
2019-02-26T01:06:43.989Z,0.90
2019-02-26T01:09:15.639Z,1.10
2019-02-26T01:11:47.544Z,1.20
2019-02-26T01:14:18.609Z,0.90
2019-02-26T01:16:48.830Z,0.80
2019-02-26T01:19:19.915Z,1.00
2019-02-26T01:21:51.027Z,0.93
2019-02-26T01:24:23.543Z,0.90
2019-02-26T01:26:53.739Z,0.90
2019-02-26T01:29:26.021Z,0.90
2019-02-26T01:31:55.202Z,1.00
2019-02-26T01:34:25.034Z,1.10
2019-02-26T01:36:55.439Z,0.80
2019-02-26T01:39:25.397Z,0.73
2019-02-26T01:41:56.202Z,1.00
2019-02-26T01:44:30.423Z,0.80
2019-02-26T01:47:02.079Z,0.70
2019-02-26T01:49:31.289Z,1.10
2019-02-26T01:52:01.822Z,0.83
2019-02-26T01:54:33.418Z,1.03
2019-02-26T01:57:03.482Z,1.20
2019-02-26T01:59:34.548Z,0.90
2019-02-26T02:02:06.750Z,0.90
2019-02-26T02:04:37.133Z,1.10
2019-02-26T02:07:08.184Z,0.87
2019-02-26T02:09:38.770Z,1.00
2019-02-26T02:12:10.921Z,0.93
2019-02-26T02:14:41.674Z,1.07
2019-02-26T02:17:13.621Z,0.87
2019-02-26T02:19:43.765Z,0.70
2019-02-26T02:22:16.654Z,0.93
2019-02-26T02:24:48.494Z,0.93
2019-02-26T02:27:20.311Z,1.20
2019-02-26T02:29:52.975Z,0.80
2019-02-26T02:32:24.283Z,1.13
2019-02-26T02:34:58.320Z,0.83
2019-02-26T02:37:26.963Z,0.90
2019-02-26T02:39:58.825Z,0.90
2019-02-26T02:42:30.209Z,0.90
2019-02-26T02:45:01.295Z,1.10
2019-02-26T02:47:33.858Z,0.97
2019-02-26T02:50:05.584Z,1.10
2019-02-26T02:52:37.786Z,1.20
2019-02-26T02:55:09.905Z,1.30
2019-02-26T02:57:39.075Z,0.70
2019-02-26T03:00:11.162Z,0.90
2019-02-26T03:02:43.233Z,1.07
2019-02-26T03:05:13.711Z,0.80
2019-02-26T03:07:45.882Z,0.80
2019-02-26T03:10:15.525Z,0.90
2019-02-26T03:12:51.195Z,0.80
2019-02-26T03:15:16.966Z,0.93
2019-02-26T03:17:47.374Z,1.00
2019-02-26T03:20:18.097Z,1.67
2019-02-26T03:22:49.139Z,0.90
2019-02-26T03:25:21.580Z,0.80
2019-02-26T03:27:51.664Z,1.20
2019-02-26T03:30:31.812Z,0.83
2019-02-26T03:32:58.243Z,0.90
2019-02-26T03:35:26.036Z,1.17
2019-02-26T03:37:58.144Z,0.90
2019-02-26T03:40:29.969Z,0.80
2019-02-26T03:43:01.323Z,0.93
2019-02-26T03:45:31.856Z,0.80
2019-02-26T03:48:02.206Z,1.10
2019-02-26T03:50:32.351Z,1.00
2019-02-26T03:53:04.043Z,1.30
2019-02-26T03:55:35.665Z,1.10
2019-02-26T03:58:05.561Z,0.70
2019-02-26T04:00:38.671Z,0.90
2019-02-26T04:03:11.859Z,1.00
2019-02-26T04:05:42.656Z,1.10
2019-02-26T04:08:13.986Z,0.83
2019-02-26T04:10:47.222Z,1.10
2019-02-26T04:13:16.287Z,0.87
2019-02-26T04:15:46.734Z,1.10
2019-02-26T04:18:16.479Z,0.77
2019-02-26T04:20:46.457Z,1.00
2019-02-26T04:23:19.895Z,1.10
2019-02-26T04:25:52.135Z,0.90
2019-02-26T04:28:44.994Z,1.07
2019-02-26T04:31:35.543Z,0.93
2019-02-26T04:34:33.383Z,1.20
2019-02-26T04:37:32.722Z,1.10
2019-02-26T04:40:32.926Z,1.00
2019-02-26T04:43:21.624Z,1.17
2019-02-26T04:45:54.730Z,1.00
2019-02-26T04:48:26.980Z,1.10
2019-02-26T04:50:57.337Z,1.13
2019-02-26T04:53:28.722Z,0.90
2019-02-26T04:56:02.839Z,1.57
2019-02-26T04:58:34.198Z,0.90
2019-02-26T05:01:04.783Z,1.00
2019-02-26T05:03:34.888Z,1.07
2019-02-26T05:06:05.907Z,1.27
2019-02-26T05:08:37.647Z,1.00
2019-02-26T05:11:08.185Z,0.97
2019-02-26T05:13:37.792Z,0.80
2019-02-26T05:16:07.740Z,1.07
2019-02-26T05:18:38.136Z,1.10
2019-02-26T05:21:10.405Z,0.97
2019-02-26T05:23:40.572Z,0.97
2019-02-26T05:26:11.664Z,1.00
2019-02-26T05:28:43.730Z,1.10
2019-02-26T05:31:15.158Z,1.30
2019-02-26T05:33:46.790Z,1.10
2019-02-26T05:36:17.268Z,1.00
2019-02-26T05:38:54.046Z,1.67
2019-02-26T05:41:23.070Z,0.93
2019-02-26T05:43:57.852Z,1.27
2019-02-26T05:46:25.049Z,1.47
2019-02-26T05:48:55.083Z,1.07
2019-02-26T05:51:27.456Z,1.00
2019-02-26T05:54:01.745Z,1.40
2019-02-26T05:56:29.596Z,1.40
2019-02-26T05:59:02.022Z,1.07
2019-02-26T06:01:31.582Z,1.33
2019-02-26T06:04:04.111Z,1.30
2019-02-26T06:06:32.796Z,1.35
2019-02-26T06:09:05.051Z,1.17
2019-02-26T06:11:38.602Z,1.20
2019-02-26T06:14:09.493Z,1.20
2019-02-26T06:16:38.493Z,1.03
2019-02-26T06:19:11.092Z,0.77
2019-02-26T06:21:44.739Z,1.10
2019-02-26T06:24:15.123Z,1.30
2019-02-26T06:26:45.782Z,1.53
2019-02-26T06:29:20.053Z,1.20
2019-02-26T06:31:50.269Z,1.50
2019-02-26T06:34:21.485Z,0.90
2019-02-26T06:36:53.289Z,1.77
2019-02-26T06:39:24.558Z,1.30
2019-02-26T06:41:55.752Z,1.10
2019-02-26T06:44:25.626Z,1.53
2019-02-26T06:46:58.579Z,1.40
2019-02-26T06:49:29.132Z,1.20
2019-02-26T06:51:59.603Z,1.73
2019-02-26T06:54:31.802Z,1.40
2019-02-26T06:57:01.671Z,1.47
2019-02-26T06:59:34.900Z,1.37
2019-02-26T07:02:04.092Z,1.23
2019-02-26T07:04:33.925Z,1.50
2019-02-26T07:07:04.430Z,1.17
2019-02-26T07:09:36.812Z,1.37
2019-02-26T07:12:07.318Z,1.17
2019-02-26T07:14:38.135Z,1.30
2019-02-26T07:17:08.064Z,1.00
2019-02-26T07:19:38.605Z,1.30
2019-02-26T07:22:10.885Z,1.17
2019-02-26T07:24:41.818Z,1.43
2019-02-26T07:27:13.956Z,1.20
2019-02-26T07:29:45.588Z,1.33
2019-02-26T07:32:17.295Z,1.33
2019-02-26T07:34:49.285Z,1.23
2019-02-26T07:37:19.080Z,1.63
2019-02-26T07:39:51.454Z,2.17
2019-02-26T07:42:22.191Z,1.67
2019-02-26T07:44:52.206Z,1.13
2019-02-26T07:47:24.418Z,1.30
2019-02-26T07:49:58.561Z,1.33
2019-02-26T07:52:30.789Z,2.17
2019-02-26T07:55:00.443Z,1.50
2019-02-26T07:57:31.454Z,1.77
2019-02-26T08:00:01.273Z,1.40
2019-02-26T08:02:33.166Z,1.73
2019-02-26T08:05:07.108Z,1.10
2019-02-26T08:07:37.677Z,1.83
2019-02-26T08:10:10.420Z,1.23
2019-02-26T08:12:40.860Z,1.83
2019-02-26T08:15:15.432Z,1.83
2019-02-26T08:17:47.852Z,2.07
2019-02-26T08:20:17.309Z,1.33
2019-02-26T08:22:49.516Z,1.33
2019-02-26T08:25:19.296Z,1.40
2019-02-26T08:27:49.988Z,1.50
2019-02-26T08:30:23.330Z,1.40
2019-02-26T08:32:54.302Z,1.53
2019-02-26T08:35:23.358Z,1.40
2019-02-26T08:37:53.410Z,1.57
2019-02-26T08:40:23.846Z,1.37
2019-02-26T08:42:54.576Z,1.60
2019-02-26T08:45:25.836Z,1.70
2019-02-26T08:47:56.457Z,1.90
2019-02-26T08:50:30.661Z,1.60
2019-02-26T08:52:58.727Z,1.40
2019-02-26T08:55:29.157Z,1.70
2019-02-26T08:57:59.864Z,1.93
2019-02-26T09:00:29.733Z,1.57
2019-02-26T09:03:02.305Z,1.73
2019-02-26T09:05:34.442Z,1.67
2019-02-26T09:08:05.955Z,1.43
2019-02-26T09:10:36.830Z,1.80
2019-02-26T09:13:09.388Z,1.70
2019-02-26T09:15:41.396Z,1.73
2019-02-26T09:18:13.053Z,2.23
2019-02-26T09:20:43.489Z,2.00
2019-02-26T09:23:16.302Z,1.93
2019-02-26T09:25:48.584Z,1.70
2019-02-26T09:28:16.968Z,1.90
2019-02-26T09:30:47.541Z,1.83
2019-02-26T09:33:17.555Z,2.33
2019-02-26T09:35:48.111Z,2.20
2019-02-26T09:38:22.467Z,2.30
2019-02-26T09:40:52.785Z,1.70
2019-02-26T09:43:24.474Z,3.20
2019-02-26T09:45:55.013Z,2.37
2019-02-26T09:48:24.944Z,2.63
2019-02-26T09:50:55.232Z,1.93
2019-02-26T09:53:25.369Z,1.90
2019-02-26T09:55:55.068Z,1.77
2019-02-26T09:58:25.497Z,2.40
2019-02-26T10:00:56.224Z,2.63
2019-02-26T10:03:27.276Z,2.20
2019-02-26T10:05:57.949Z,2.10
2019-02-26T10:08:30.568Z,2.30
2019-02-26T10:11:02.765Z,3.07
2019-02-26T10:13:32.003Z,1.80
2019-02-26T10:16:04.508Z,2.00
2019-02-26T10:18:34.771Z,2.00
2019-02-26T10:21:06.769Z,2.00
2019-02-26T10:23:36.329Z,1.87
2019-02-26T10:26:08.411Z,1.80
2019-02-26T10:28:40.340Z,2.13
2019-02-26T10:31:09.779Z,2.47
2019-02-26T10:33:41.133Z,2.03
2019-02-26T10:36:13.482Z,3.10
2019-02-26T10:38:43.300Z,1.87
2019-02-26T10:41:14.335Z,2.97
2019-02-26T10:43:44.524Z,1.97
2019-02-26T10:46:14.937Z,2.17
2019-02-26T10:48:46.343Z,2.00
2019-02-26T10:51:17.410Z,1.83
2019-02-26T10:53:47.182Z,2.57
2019-02-26T10:56:16.849Z,2.17
2019-02-26T10:58:46.865Z,1.80
2019-02-26T11:01:17.753Z,3.30
2019-02-26T11:03:49.302Z,1.70
2019-02-26T11:06:19.900Z,1.67
2019-02-26T11:08:51.172Z,2.27
2019-02-26T11:11:21.909Z,1.97
2019-02-26T11:13:53.877Z,2.10
2019-02-26T11:16:25.376Z,1.57
2019-02-26T11:18:55.553Z,1.90
2019-02-26T11:21:25.418Z,2.33
2019-02-26T11:23:58.306Z,1.97
2019-02-26T11:26:30.115Z,1.93
2019-02-26T11:29:01.248Z,2.57
2019-02-26T11:31:31.157Z,2.70
2019-02-26T11:34:04.034Z,2.63
2019-02-26T11:36:33.514Z,2.70
2019-02-26T11:39:06.818Z,1.93
2019-02-26T11:41:37.625Z,1.83
2019-02-26T11:44:12.459Z,1.90
2019-02-26T11:46:40.129Z,1.80
2019-02-26T11:49:11.854Z,2.70
2019-02-26T11:51:42.565Z,2.23
2019-02-26T11:54:14.385Z,2.13
2019-02-26T11:56:44.578Z,2.10
2019-02-26T11:59:19.520Z,2.17
2019-02-26T12:01:49.625Z,1.87
2019-02-26T12:04:20.106Z,2.93
2019-02-26T12:06:50.616Z,2.23
2019-02-26T12:09:21.065Z,2.33
2019-02-26T12:11:50.603Z,2.60
2019-02-26T12:14:21.640Z,2.20
2019-02-26T12:16:51.461Z,1.90
2019-02-26T12:19:23.103Z,4.13
2019-02-26T12:21:55.181Z,1.60
2019-02-26T12:24:26.749Z,1.80
2019-02-26T12:26:57.273Z,2.00
2019-02-26T12:29:28.386Z,1.80
2019-02-26T12:32:01.065Z,1.87
2019-02-26T12:34:35.021Z,2.10
2019-02-26T12:37:06.636Z,2.47
2019-02-26T12:39:35.388Z,2.73
2019-02-26T12:42:07.137Z,2.87
2019-02-26T12:44:39.427Z,2.00
2019-02-26T12:47:08.457Z,1.83
2019-02-26T12:49:41.539Z,1.53
2019-02-26T12:52:10.600Z,2.80
2019-02-26T12:54:42.850Z,2.10
2019-02-26T12:57:16.969Z,2.23
2019-02-26T12:59:47.095Z,1.93
2019-02-26T13:02:20.912Z,4.33
2019-02-26T13:04:51.145Z,2.23
2019-02-26T13:07:22.395Z,1.57
2019-02-26T13:09:55.941Z,1.90
2019-02-26T13:12:28.876Z,2.10
2019-02-26T13:15:02.428Z,2.53
2019-02-26T13:17:29.460Z,1.80
2019-02-26T13:20:01.670Z,1.93
2019-02-26T13:22:33.970Z,1.50
2019-02-26T13:25:13.293Z,2.00
2019-02-26T13:27:38.753Z,2.90
2019-02-26T13:30:10.105Z,1.80
2019-02-26T13:32:55.208Z,2.30
2019-02-26T13:35:12.690Z,2.37
2019-02-26T13:37:43.117Z,2.57
2019-02-26T13:40:15.445Z,2.00
2019-02-26T13:42:50.244Z,1.93
2019-02-26T13:45:19.131Z,2.00
2019-02-26T13:47:51.132Z,2.00
2019-02-26T13:50:23.446Z,1.73
2019-02-26T13:52:53.174Z,1.50
2019-02-26T13:55:23.675Z,2.63
2019-02-26T13:57:53.823Z,1.70
2019-02-26T14:00:27.136Z,2.10
2019-02-26T14:02:57.802Z,2.23
2019-02-26T14:05:28.237Z,1.73
2019-02-26T14:07:57.915Z,2.73
2019-02-26T14:10:28.645Z,2.30
2019-02-26T14:13:00.382Z,2.60
2019-02-26T14:15:30.013Z,1.73
2019-02-26T14:18:00.411Z,2.20
2019-02-26T14:20:30.561Z,2.00
2019-02-26T14:23:00.521Z,1.50
2019-02-26T14:25:31.985Z,1.73
2019-02-26T14:28:02.057Z,1.07
2019-02-26T14:30:31.773Z,2.17
2019-02-26T14:33:03.584Z,1.47
2019-02-26T14:35:33.557Z,2.17
2019-02-26T14:38:03.781Z,1.50
2019-02-26T14:40:34.278Z,1.73
2019-02-26T14:43:05.858Z,2.20
2019-02-26T14:45:35.585Z,1.70
2019-02-26T14:48:05.521Z,1.70
2019-02-26T14:50:35.277Z,1.73
2019-02-26T14:53:05.647Z,1.67
2019-02-26T14:55:36.102Z,1.40
2019-02-26T14:58:07.017Z,3.03
2019-02-26T15:00:37.045Z,2.70
2019-02-26T15:03:07.064Z,4.13
2019-02-26T15:05:37.532Z,2.00
2019-02-26T15:08:09.664Z,1.70
2019-02-26T15:10:39.929Z,2.67
2019-02-26T15:13:10.393Z,2.57
2019-02-26T15:15:40.995Z,6.87
2019-02-26T15:18:13.417Z,4.27
2019-02-26T15:20:43.409Z,1.80
2019-02-26T15:23:13.245Z,4.43
2019-02-26T15:25:44.193Z,2.83
2019-02-26T15:28:14.122Z,3.03
2019-02-26T15:30:44.042Z,2.97
2019-02-26T15:33:17.233Z,1.93
2019-02-26T15:35:46.997Z,2.40
2019-02-26T15:38:16.970Z,4.33
2019-02-26T15:40:47.973Z,3.30
2019-02-26T15:43:18.373Z,3.90
2019-02-26T15:48:21.978Z,3.10
2019-02-26T15:50:51.986Z,3.93
2019-02-26T15:53:23.845Z,4.97
2019-02-26T15:55:59.139Z,4.63
2019-02-26T15:58:27.808Z,3.33
2019-02-26T16:00:58.023Z,4.27
2019-02-26T16:03:29.714Z,3.97
2019-02-26T16:05:59.885Z,4.60
2019-02-26T16:08:34.529Z,3.37
2019-02-26T16:11:01.801Z,5.67
2019-02-26T16:13:34.029Z,3.40
2019-02-26T16:16:03.797Z,3.27
2019-02-26T16:18:34.262Z,3.73
2019-02-26T16:21:04.002Z,5.23
2019-02-26T16:23:33.596Z,6.67
2019-02-26T16:26:05.612Z,3.73
2019-02-26T16:28:36.674Z,4.73
2019-02-26T16:31:06.997Z,4.00
2019-02-26T16:33:37.021Z,3.60
2019-02-26T16:36:06.860Z,3.77
2019-02-26T16:38:38.333Z,4.50
2019-02-26T16:41:07.997Z,3.50
2019-02-26T16:43:37.845Z,4.40
2019-02-26T16:46:09.155Z,4.90
2019-02-26T16:48:40.193Z,4.03
2019-02-26T16:51:09.845Z,4.70
2019-02-26T16:53:39.516Z,4.17
2019-02-26T16:56:10.061Z,4.60
2019-02-26T16:58:39.934Z,4.67
2019-02-26T17:01:10.781Z,3.73
2019-02-26T17:03:41.141Z,3.97
2019-02-26T17:06:12.160Z,4.87
2019-02-26T17:08:42.177Z,4.40
2019-02-26T17:11:13.451Z,5.17
2019-02-26T17:13:44.450Z,5.47
2019-02-26T17:16:15.281Z,4.87
2019-02-26T17:18:45.600Z,4.83
2019-02-26T17:21:15.352Z,4.53
2019-02-26T17:23:47.104Z,5.60
2019-02-26T17:26:17.621Z,4.73
2019-02-26T17:28:47.590Z,4.23
2019-02-26T17:31:18.941Z,5.37
2019-02-26T17:33:49.575Z,4.73
2019-02-26T17:36:20.133Z,3.70
2019-02-26T17:38:51.784Z,4.23
2019-02-26T17:41:23.272Z,3.33
2019-02-26T17:43:53.753Z,3.90
2019-02-26T17:46:24.269Z,9.10
2019-02-26T17:48:54.781Z,8.77
2019-02-26T17:51:24.472Z,4.53
2019-02-26T17:53:54.220Z,5.57
2019-02-26T17:56:26.302Z,7.63
2019-02-26T17:58:55.482Z,6.67
2019-02-26T18:01:25.209Z,6.50
2019-02-26T18:03:55.578Z,6.93
2019-02-26T18:06:27.612Z,7.73
2019-02-26T18:08:57.420Z,7.33
2019-02-26T18:11:28.008Z,6.77
2019-02-26T18:14:00.772Z,6.73
2019-02-26T18:16:33.699Z,6.70
2019-02-26T18:19:03.393Z,6.67
2019-02-26T18:21:34.969Z,7.40
2019-02-26T18:24:07.392Z,7.73
2019-02-26T18:26:38.071Z,8.07
2019-02-26T18:29:09.477Z,7.13
2019-02-26T18:31:40.057Z,5.97
2019-02-26T18:34:11.822Z,6.30
2019-02-26T18:36:45.061Z,6.37
2019-02-26T18:39:15.385Z,7.07
2019-02-26T18:41:50.663Z,6.50
2019-02-26T18:44:17.796Z,5.50
2019-02-26T18:46:52.859Z,5.03
2019-02-26T18:49:23.359Z,5.90
2019-02-26T18:52:09.972Z,5.47
2019-02-26T18:54:39.645Z,4.80
2019-02-26T18:57:19.757Z,4.50
2019-02-26T18:59:53.427Z,5.03
2019-02-26T19:02:23.489Z,4.70
2019-02-26T19:04:53.344Z,6.00
2019-02-26T19:07:23.293Z,4.83
2019-02-26T19:09:53.169Z,5.07
2019-02-26T19:12:30.241Z,4.73
2019-02-26T19:14:58.329Z,4.97
2019-02-26T19:17:28.148Z,4.10
2019-02-26T19:19:58.187Z,4.60
2019-02-26T19:22:28.188Z,5.30
2019-02-26T19:24:58.937Z,4.43
2019-02-26T19:27:29.364Z,4.30
2019-02-26T19:30:04.189Z,4.23
2019-02-26T19:32:32.076Z,5.23
2019-02-26T19:35:02.418Z,5.13
2019-02-26T19:37:33.277Z,5.30
2019-02-26T19:40:05.703Z,4.20
2019-02-26T19:42:35.312Z,4.20
2019-02-26T19:45:08.336Z,3.40
2019-02-26T19:47:36.709Z,3.53
2019-02-26T19:50:11.631Z,3.77
2019-02-26T19:52:40.227Z,3.97
2019-02-26T19:55:12.931Z,3.83
2019-02-26T19:57:43.889Z,3.77
2019-02-26T20:00:13.925Z,3.10
2019-02-26T20:02:45.079Z,3.87
2019-02-26T20:05:15.581Z,3.10
2019-02-26T20:07:46.051Z,2.70
2019-02-26T20:10:16.212Z,2.80
2019-02-26T20:12:46.443Z,3.77
2019-02-26T20:15:21.709Z,2.87
2019-02-26T20:17:49.721Z,3.03
2019-02-26T20:20:19.716Z,2.90
2019-02-26T20:22:50.679Z,2.70
2019-02-26T20:25:20.477Z,2.27
2019-02-26T20:27:54.647Z,2.60
2019-02-26T20:30:23.028Z,2.70
2019-02-26T20:32:53.617Z,2.63
2019-02-26T20:35:24.893Z,3.50
2019-02-26T20:37:58.649Z,2.47
2019-02-26T20:40:28.697Z,2.00
2019-02-26T20:43:01.364Z,2.37
2019-02-26T20:45:30.749Z,2.67
2019-02-26T20:48:03.857Z,2.80
2019-02-26T20:50:32.839Z,2.13
2019-02-26T20:53:05.709Z,2.47
2019-02-26T20:55:34.825Z,2.60
2019-02-26T20:58:04.700Z,1.90
2019-02-26T21:00:35.074Z,2.03
2019-02-26T21:03:08.043Z,2.40
2019-02-26T21:05:38.033Z,2.00
2019-02-26T21:08:08.814Z,2.10
2019-02-26T21:10:40.919Z,2.13
2019-02-26T21:13:10.860Z,2.10
2019-02-26T21:15:41.340Z,1.63
2019-02-26T21:18:13.113Z,1.87
2019-02-26T21:20:43.405Z,1.67
2019-02-26T21:23:13.965Z,1.57
2019-02-26T21:25:47.406Z,1.70
2019-02-26T21:28:16.254Z,1.60
2019-02-26T21:30:47.434Z,3.10
2019-02-26T21:33:18.149Z,3.40
2019-02-26T21:35:47.817Z,2.07
2019-02-26T21:38:17.767Z,1.50
2019-02-26T21:40:49.699Z,1.90
2019-02-26T21:43:20.027Z,1.70
2019-02-26T21:45:49.942Z,1.90
2019-02-26T21:48:23.045Z,1.37
2019-02-26T21:50:54.859Z,1.80
2019-02-26T21:53:24.210Z,1.83
2019-02-26T21:55:55.648Z,1.40
2019-02-26T21:58:26.848Z,1.53
2019-02-26T22:00:57.666Z,1.50
2019-02-26T22:03:27.889Z,1.60
2019-02-26T22:06:05.008Z,1.60
2019-02-26T22:08:30.125Z,1.43
2019-02-26T22:11:01.677Z,1.70
2019-02-26T22:13:31.900Z,1.40
2019-02-26T22:16:01.782Z,1.60
2019-02-26T22:18:34.269Z,1.63
2019-02-26T22:21:03.297Z,1.70
2019-02-26T22:23:34.304Z,1.50
2019-02-26T22:26:05.293Z,1.27
2019-02-26T22:28:35.677Z,1.60
2019-02-26T22:31:06.173Z,1.40
2019-02-26T22:33:40.713Z,1.07
2019-02-26T22:36:11.225Z,1.50
2019-02-26T22:38:40.938Z,1.60
2019-02-26T22:41:10.793Z,1.83
2019-02-26T22:43:40.569Z,1.47
2019-02-26T22:46:11.385Z,1.17
2019-02-26T22:48:41.124Z,1.37
2019-02-26T22:51:10.750Z,1.50
2019-02-26T22:53:40.980Z,1.30
2019-02-26T22:56:11.478Z,1.57
2019-02-26T22:58:41.338Z,1.43
2019-02-26T23:01:18.415Z,1.17
2019-02-26T23:03:48.759Z,1.70
2019-02-26T23:06:20.064Z,1.37
2019-02-26T23:08:50.316Z,1.50
2019-02-26T23:11:21.115Z,1.23
2019-02-26T23:13:52.000Z,1.50
2019-02-26T23:16:22.412Z,1.37
2019-02-26T23:18:52.419Z,1.40
2019-02-26T23:21:22.579Z,1.30
2019-02-26T23:23:54.699Z,1.43
2019-02-26T23:26:24.932Z,1.23
2019-02-26T23:28:55.527Z,1.20
2019-02-26T23:31:27.776Z,1.77
2019-02-26T23:33:58.431Z,1.60
2019-02-26T23:36:28.847Z,1.80
2019-02-26T23:39:02.895Z,1.30
2019-02-26T23:41:33.736Z,1.50
2019-02-26T23:44:04.064Z,1.27
2019-02-26T23:46:34.555Z,1.30
2019-02-26T23:49:05.321Z,1.50
2019-02-26T23:51:35.782Z,1.10
2019-02-26T23:54:08.631Z,1.10
2019-02-26T23:56:39.745Z,1.20
2019-02-26T23:59:09.943Z,1.10
